sensor_id;sensor_type;location;lat;lon;timestamp;pressure;altitude;pressure_sealevel;temperature;humidity
27984;BME280;15317;50.360;8.726;2024-02-04T00:00:42;100365.31;;;8.54;100.00
27984;BME280;15317;50.360;8.726;2024-02-04T00:05:45;100377.66;;;8.58;100.00
27984;BME280;15317;50.360;8.726;2024-02-04T00:10:50;100386.38;;;8.73;100.00
27984;BME280;15317;50.360;8.726;2024-02-04T00:15:53;100382.78;;;8.61;100.00
27984;BME280;15317;50.360;8.726;2024-02-04T00:20:56;100374.78;;;8.70;100.00
27984;BME280;15317;50.360;8.726;2024-02-04T00:26:01;100368.63;;;8.68;100.00
27984;BME280;15317;50.360;8.726;2024-02-04T00:31:04;100353.75;;;8.63;100.00
27984;BME280;15317;50.360;8.726;2024-02-04T00:36:08;100360.28;;;8.49;100.00
27984;BME280;15317;50.360;8.726;2024-02-04T00:41:12;100360.44;;;8.37;100.00
27984;BME280;15317;50.360;8.726;2024-02-04T00:46:16;100350.81;;;8.32;100.00
27984;BME280;15317;50.360;8.726;2024-02-04T00:51:20;100348.09;;;8.21;100.00
27984;BME280;15317;50.360;8.726;2024-02-04T00:56:26;100346.38;;;8.20;100.00
27984;BME280;15317;50.360;8.726;2024-02-04T01:01:29;100359.66;;;8.12;100.00
27984;BME280;15317;50.360;8.726;2024-02-04T01:06:33;100356.59;;;8.06;100.00
27984;BME280;15317;50.360;8.726;2024-02-04T01:11:53;100355.97;;;8.13;100.00
27984;BME280;15317;50.360;8.726;2024-02-04T01:16:56;100343.94;;;8.06;100.00
27984;BME280;15317;50.360;8.726;2024-02-04T01:22:00;100365.09;;;8.01;100.00
27984;BME280;15317;50.360;8.726;2024-02-04T01:27:04;100363.84;;;8.05;100.00
27984;BME280;15317;50.360;8.726;2024-02-04T01:32:09;100372.97;;;8.04;100.00
27984;BME280;15317;50.360;8.726;2024-02-04T01:37:12;100364.09;;;8.13;100.00
27984;BME280;15317;50.360;8.726;2024-02-04T01:42:17;100365.81;;;8.48;100.00
27984;BME280;15317;50.360;8.726;2024-02-04T01:47:20;100346.25;;;8.55;100.00
27984;BME280;15317;50.360;8.726;2024-02-04T01:52:23;100347.97;;;8.56;100.00
27984;BME280;15317;50.360;8.726;2024-02-04T01:57:28;100348.22;;;8.53;100.00
27984;BME280;15317;50.360;8.726;2024-02-04T02:02:32;100348.72;;;8.47;100.00
27984;BME280;15317;50.360;8.726;2024-02-04T02:07:37;100365.81;;;8.48;100.00
27984;BME280;15317;50.360;8.726;2024-02-04T02:12:47;100350.44;;;8.48;100.00
27984;BME280;15317;50.360;8.726;2024-02-04T02:17:54;100344.78;;;8.51;100.00
27984;BME280;15317;50.360;8.726;2024-02-04T02:23:06;100337.81;;;8.38;100.00
27984;BME280;15317;50.360;8.726;2024-02-04T02:28:11;100324.84;;;8.30;100.00
27984;BME280;15317;50.360;8.726;2024-02-04T02:33:15;100326.34;;;8.23;100.00
27984;BME280;15317;50.360;8.726;2024-02-04T02:38:24;100325.22;;;8.14;100.00
27984;BME280;15317;50.360;8.726;2024-02-04T02:43:30;100327.94;;;8.14;100.00
27984;BME280;15317;50.360;8.726;2024-02-04T02:48:35;100310.97;;;8.12;100.00
27984;BME280;15317;50.360;8.726;2024-02-04T02:53:39;100308.03;;;8.04;100.00
27984;BME280;15317;50.360;8.726;2024-02-04T02:58:44;100308.53;;;7.98;100.00
27984;BME280;15317;50.360;8.726;2024-02-04T03:03:47;100306.81;;;7.97;100.00
27984;BME280;15317;50.360;8.726;2024-02-04T03:08:51;100291.91;;;7.91;100.00
27984;BME280;15317;50.360;8.726;2024-02-04T03:13:55;100295.75;;;7.89;100.00
27984;BME280;15317;50.360;8.726;2024-02-04T03:18:59;100296.84;;;7.86;100.00
27984;BME280;15317;50.360;8.726;2024-02-04T03:24:02;100297.59;;;7.88;100.00
27984;BME280;15317;50.360;8.726;2024-02-04T03:29:07;100303.09;;;7.87;100.00
27984;BME280;15317;50.360;8.726;2024-02-04T03:34:10;100291.69;;;7.83;100.00
27984;BME280;15317;50.360;8.726;2024-02-04T03:39:14;100277.03;;;7.86;100.00
27984;BME280;15317;50.360;8.726;2024-02-04T03:44:19;100273.84;;;7.81;100.00
27984;BME280;15317;50.360;8.726;2024-02-04T03:49:22;100276.94;;;7.76;100.00
27984;BME280;15317;50.360;8.726;2024-02-04T03:54:25;100273.38;;;7.76;100.00
27984;BME280;15317;50.360;8.726;2024-02-04T03:59:30;100271.75;;;7.73;100.00
27984;BME280;15317;50.360;8.726;2024-02-04T04:04:34;100283.91;;;7.79;100.00
27984;BME280;15317;50.360;8.726;2024-02-04T04:09:37;100280.25;;;7.80;100.00
27984;BME280;15317;50.360;8.726;2024-02-04T04:14:42;100279.25;;;7.81;100.00
27984;BME280;15317;50.360;8.726;2024-02-04T04:19:46;100281.22;;;7.90;100.00
27984;BME280;15317;50.360;8.726;2024-02-04T04:24:49;100283.78;;;7.91;100.00
27984;BME280;15317;50.360;8.726;2024-02-04T04:29:54;100280.84;;;7.94;100.00
27984;BME280;15317;50.360;8.726;2024-02-04T04:34:58;100273.47;;;7.97;100.00
27984;BME280;15317;50.360;8.726;2024-02-04T04:40:01;100279.63;;;8.10;100.00
27984;BME280;15317;50.360;8.726;2024-02-04T04:45:07;100274.94;;;8.01;100.00
27984;BME280;15317;50.360;8.726;2024-02-04T04:50:10;100280.72;;;8.18;100.00
27984;BME280;15317;50.360;8.726;2024-02-04T04:55:14;100285.25;;;8.29;100.00
27984;BME280;15317;50.360;8.726;2024-02-04T05:00:19;100282.44;;;8.30;100.00
27984;BME280;15317;50.360;8.726;2024-02-04T05:05:23;100273.34;;;8.31;100.00
27984;BME280;15317;50.360;8.726;2024-02-04T05:10:26;100258.06;;;8.19;100.00
27984;BME280;15317;50.360;8.726;2024-02-04T05:15:31;100266.56;;;8.15;100.00
27984;BME280;15317;50.360;8.726;2024-02-04T05:20:36;100263.38;;;8.10;100.00
27984;BME280;15317;50.360;8.726;2024-02-04T05:25:39;100257.09;;;8.09;100.00
27984;BME280;15317;50.360;8.726;2024-02-04T05:30:44;100263.03;;;8.03;100.00
27984;BME280;15317;50.360;8.726;2024-02-04T05:35:48;100266.94;;;7.99;100.00
27984;BME280;15317;50.360;8.726;2024-02-04T05:40:51;100280.00;;;7.94;100.00
27984;BME280;15317;50.360;8.726;2024-02-04T05:45:56;100271.75;;;7.96;100.00
27984;BME280;15317;50.360;8.726;2024-02-04T05:50:59;100290.31;;;8.00;100.00
27984;BME280;15317;50.360;8.726;2024-02-04T05:56:03;100289.22;;;8.03;100.00
27984;BME280;15317;50.360;8.726;2024-02-04T06:01:08;100288.34;;;8.13;100.00
27984;BME280;15317;50.360;8.726;2024-02-04T06:06:14;100279.59;;;8.21;100.00
27984;BME280;15317;50.360;8.726;2024-02-04T06:11:18;100294.09;;;8.20;100.00
27984;BME280;15317;50.360;8.726;2024-02-04T06:16:22;100278.25;;;8.15;100.00
27984;BME280;15317;50.360;8.726;2024-02-04T06:21:26;100272.47;;;8.09;100.00
27984;BME280;15317;50.360;8.726;2024-02-04T06:26:29;100272.88;;;8.04;100.00
27984;BME280;15317;50.360;8.726;2024-02-04T06:31:34;100282.94;;;8.02;100.00
27984;BME280;15317;50.360;8.726;2024-02-04T06:36:37;100276.31;;;7.95;100.00
27984;BME280;15317;50.360;8.726;2024-02-04T06:41:41;100278.53;;;7.90;100.00
27984;BME280;15317;50.360;8.726;2024-02-04T06:46:46;100273.34;;;7.87;100.00
27984;BME280;15317;50.360;8.726;2024-02-04T06:51:50;100261.06;;;7.83;100.00
27984;BME280;15317;50.360;8.726;2024-02-04T06:56:58;100264.75;;;7.82;100.00
27984;BME280;15317;50.360;8.726;2024-02-04T07:02:03;100273.75;;;7.82;100.00
27984;BME280;15317;50.360;8.726;2024-02-04T07:07:09;100278.41;;;7.80;100.00
27984;BME280;15317;50.360;8.726;2024-02-04T07:12:12;100283.06;;;7.78;100.00
27984;BME280;15317;50.360;8.726;2024-02-04T07:17:17;100293.75;;;7.80;100.00
27984;BME280;15317;50.360;8.726;2024-02-04T07:22:20;100289.09;;;7.82;100.00
27984;BME280;15317;50.360;8.726;2024-02-04T07:27:23;100275.31;;;7.85;100.00
27984;BME280;15317;50.360;8.726;2024-02-04T07:32:29;100278.66;;;7.88;100.00
27984;BME280;15317;50.360;8.726;2024-02-04T07:37:32;100273.97;;;7.90;100.00
27984;BME280;15317;50.360;8.726;2024-02-04T07:42:35;100274.47;;;7.96;100.00
27984;BME280;15317;50.360;8.726;2024-02-04T07:47:40;100271.88;;;7.94;100.00
27984;BME280;15317;50.360;8.726;2024-02-04T07:52:44;100260.44;;;8.02;100.00
27984;BME280;15317;50.360;8.726;2024-02-04T07:57:47;100256.38;;;8.07;100.00
27984;BME280;15317;50.360;8.726;2024-02-04T08:02:55;100268.16;;;8.06;100.00
27984;BME280;15317;50.360;8.726;2024-02-04T08:08:01;100259.53;;;8.12;100.00
27984;BME280;15317;50.360;8.726;2024-02-04T08:13:06;100247.50;;;8.16;100.00
27984;BME280;15317;50.360;8.726;2024-02-04T08:18:15;100235.66;;;8.28;100.00
27984;BME280;15317;50.360;8.726;2024-02-04T08:23:20;100244.28;;;8.33;100.00
27984;BME280;15317;50.360;8.726;2024-02-04T08:28:25;100257.31;;;8.40;100.00
27984;BME280;15317;50.360;8.726;2024-02-04T08:33:31;100260.00;;;8.40;100.00
27984;BME280;15317;50.360;8.726;2024-02-04T08:38:39;100253.25;;;8.45;100.00
27984;BME280;15317;50.360;8.726;2024-02-04T08:43:44;100240.41;;;8.58;100.00
27984;BME280;15317;50.360;8.726;2024-02-04T08:48:50;100248.06;;;8.74;100.00
27984;BME280;15317;50.360;8.726;2024-02-04T08:53:53;100256.69;;;8.79;100.00
27984;BME280;15317;50.360;8.726;2024-02-04T08:58:56;100245.59;;;8.82;100.00
27984;BME280;15317;50.360;8.726;2024-02-04T09:04:03;100233.22;;;8.89;100.00
27984;BME280;15317;50.360;8.726;2024-02-04T09:09:06;100239.09;;;8.94;100.00
27984;BME280;15317;50.360;8.726;2024-02-04T09:14:10;100241.13;;;8.92;100.00
27984;BME280;15317;50.360;8.726;2024-02-04T09:19:14;100237.13;;;8.96;100.00
27984;BME280;15317;50.360;8.726;2024-02-04T09:24:18;100226.44;;;9.16;100.00
27984;BME280;15317;50.360;8.726;2024-02-04T09:29:21;100234.19;;;9.20;100.00
27984;BME280;15317;50.360;8.726;2024-02-04T09:34:26;100218.41;;;9.35;100.00
27984;BME280;15317;50.360;8.726;2024-02-04T09:39:29;100231.97;;;9.35;100.00
27984;BME280;15317;50.360;8.726;2024-02-04T09:44:33;100221.31;;;9.43;100.00
27984;BME280;15317;50.360;8.726;2024-02-04T09:49:39;100220.09;;;9.57;100.00
27984;BME280;15317;50.360;8.726;2024-02-04T09:54:45;100214.97;;;9.63;100.00
27984;BME280;15317;50.360;8.726;2024-02-04T09:59:49;100212.00;;;9.66;100.00
27984;BME280;15317;50.360;8.726;2024-02-04T10:04:53;100221.63;;;9.80;100.00
27984;BME280;15317;50.360;8.726;2024-02-04T10:09:56;100225.53;;;9.97;100.00
27984;BME280;15317;50.360;8.726;2024-02-04T10:15:00;100221.25;;;10.04;100.00
27984;BME280;15317;50.360;8.726;2024-02-04T10:20:06;100210.56;;;10.02;100.00
27984;BME280;15317;50.360;8.726;2024-02-04T10:25:12;100208.56;;;10.04;100.00
27984;BME280;15317;50.360;8.726;2024-02-04T10:30:18;100213.97;;;9.95;100.00
27984;BME280;15317;50.360;8.726;2024-02-04T10:35:24;100189.72;;;10.03;100.00
27984;BME280;15317;50.360;8.726;2024-02-04T10:40:31;100198.72;;;10.13;100.00
27984;BME280;15317;50.360;8.726;2024-02-04T10:45:39;100195.22;;;10.22;100.00
27984;BME280;15317;50.360;8.726;2024-02-04T10:51:08;100196.47;;;10.18;100.00
27984;BME280;15317;50.360;8.726;2024-02-04T10:56:34;100191.78;;;10.29;100.00
27984;BME280;15317;50.360;8.726;2024-02-04T11:01:45;100180.34;;;10.45;100.00
27984;BME280;15317;50.360;8.726;2024-02-04T11:06:57;100174.09;;;10.64;100.00
27984;BME280;15317;50.360;8.726;2024-02-04T11:23:47;100152.00;;;10.96;100.00
27984;BME280;15317;50.360;8.726;2024-02-04T11:41:05;100135.94;;;11.86;100.00
27984;BME280;15317;50.360;8.726;2024-02-04T11:46:17;100133.66;;;11.81;100.00
27984;BME280;15317;50.360;8.726;2024-02-04T11:51:23;100144.69;;;11.53;100.00
27984;BME280;15317;50.360;8.726;2024-02-04T11:56:33;100142.31;;;11.30;100.00
27984;BME280;15317;50.360;8.726;2024-02-04T12:01:45;100127.03;;;11.20;100.00
27984;BME280;15317;50.360;8.726;2024-02-04T12:06:56;100119.88;;;11.56;100.00
27984;BME280;15317;50.360;8.726;2024-02-04T12:12:06;100125.22;;;12.02;100.00
27984;BME280;15317;50.360;8.726;2024-02-04T12:17:14;100121.31;;;11.87;100.00
27984;BME280;15317;50.360;8.726;2024-02-04T12:22:19;100118.66;;;11.95;100.00
27984;BME280;15317;50.360;8.726;2024-02-04T12:27:26;100101.94;;;11.90;100.00
27984;BME280;15317;50.360;8.726;2024-02-04T12:32:35;100113.84;;;11.89;100.00
27984;BME280;15317;50.360;8.726;2024-02-04T12:37:50;100094.59;;;11.73;100.00
27984;BME280;15317;50.360;8.726;2024-02-04T12:42:57;100099.31;;;11.71;100.00
27984;BME280;15317;50.360;8.726;2024-02-04T12:48:08;100093.16;;;11.78;100.00
27984;BME280;15317;50.360;8.726;2024-02-04T12:53:19;100096.41;;;11.55;100.00
27984;BME280;15317;50.360;8.726;2024-02-04T12:58:25;100089.69;;;11.49;100.00
27984;BME280;15317;50.360;8.726;2024-02-04T13:03:30;100078.16;;;11.65;100.00
27984;BME280;15317;50.360;8.726;2024-02-04T13:08:36;100090.53;;;11.59;100.00
27984;BME280;15317;50.360;8.726;2024-02-04T13:13:45;100066.56;;;11.35;100.00
27984;BME280;15317;50.360;8.726;2024-02-04T13:18:53;100091.53;;;11.21;100.00
27984;BME280;15317;50.360;8.726;2024-02-04T13:24:00;100081.28;;;11.15;100.00
27984;BME280;15317;50.360;8.726;2024-02-04T13:29:14;100072.84;;;11.45;100.00
27984;BME280;15317;50.360;8.726;2024-02-04T13:34:22;100077.59;;;11.61;100.00
27984;BME280;15317;50.360;8.726;2024-02-04T13:39:27;100082.13;;;11.70;100.00
27984;BME280;15317;50.360;8.726;2024-02-04T13:44:34;100081.03;;;11.63;100.00
27984;BME280;15317;50.360;8.726;2024-02-04T13:49:39;100077.44;;;11.63;100.00
27984;BME280;15317;50.360;8.726;2024-02-04T13:54:46;100073.88;;;11.62;100.00
27984;BME280;15317;50.360;8.726;2024-02-04T13:59:52;100068.38;;;11.72;100.00
27984;BME280;15317;50.360;8.726;2024-02-04T14:04:56;100048.03;;;11.76;100.00
27984;BME280;15317;50.360;8.726;2024-02-04T14:10:00;100047.75;;;11.79;100.00
27984;BME280;15317;50.360;8.726;2024-02-04T14:15:07;100036.63;;;11.90;100.00
27984;BME280;15317;50.360;8.726;2024-02-04T14:20:11;100044.50;;;11.93;100.00
27984;BME280;15317;50.360;8.726;2024-02-04T14:25:16;100052.72;;;12.01;100.00
27984;BME280;15317;50.360;8.726;2024-02-04T14:30:22;100047.59;;;11.98;100.00
27984;BME280;15317;50.360;8.726;2024-02-04T14:35:26;100048.59;;;11.79;100.00
27984;BME280;15317;50.360;8.726;2024-02-04T14:40:29;100048.84;;;11.59;100.00
27984;BME280;15317;50.360;8.726;2024-02-04T14:45:34;100044.09;;;11.61;100.00
27984;BME280;15317;50.360;8.726;2024-02-04T14:50:37;100057.91;;;11.49;100.00
27984;BME280;15317;50.360;8.726;2024-02-04T14:55:40;100055.69;;;11.35;100.00
27984;BME280;15317;50.360;8.726;2024-02-04T15:00:47;100058.03;;;11.30;100.00
27984;BME280;15317;50.360;8.726;2024-02-04T15:05:51;100066.69;;;11.16;100.00
27984;BME280;15317;50.360;8.726;2024-02-04T15:10:54;100064.16;;;11.05;100.00
27984;BME280;15317;50.360;8.726;2024-02-04T15:16:00;100064.16;;;11.05;100.00
27984;BME280;15317;50.360;8.726;2024-02-04T15:21:04;100063.03;;;10.98;100.00
27984;BME280;15317;50.360;8.726;2024-02-04T15:26:10;100054.91;;;10.88;100.00
27984;BME280;15317;50.360;8.726;2024-02-04T15:31:20;100061.41;;;10.68;100.00
27984;BME280;15317;50.360;8.726;2024-02-04T15:36:23;100040.84;;;10.56;100.00
27984;BME280;15317;50.360;8.726;2024-02-04T15:41:27;100053.84;;;10.52;100.00
27984;BME280;15317;50.360;8.726;2024-02-04T15:46:32;100039.41;;;10.52;100.00
27984;BME280;15317;50.360;8.726;2024-02-04T15:51:37;100040.56;;;10.49;100.00
27984;BME280;15317;50.360;8.726;2024-02-04T15:56:42;100033.69;;;10.45;100.00
27984;BME280;15317;50.360;8.726;2024-02-04T16:01:49;100044.88;;;10.42;100.00
27984;BME280;15317;50.360;8.726;2024-02-04T16:06:53;100042.75;;;10.36;100.00
27984;BME280;15317;50.360;8.726;2024-02-04T16:12:01;100054.75;;;10.43;100.00
27984;BME280;15317;50.360;8.726;2024-02-04T16:17:13;100050.56;;;10.39;100.00
27984;BME280;15317;50.360;8.726;2024-02-04T16:22:19;100071.63;;;10.37;100.00
27984;BME280;15317;50.360;8.726;2024-02-04T16:27:23;100045.72;;;10.33;100.00
27984;BME280;15317;50.360;8.726;2024-02-04T16:32:27;100048.88;;;10.19;100.00
27984;BME280;15317;50.360;8.726;2024-02-04T16:37:31;100054.00;;;10.12;100.00
27984;BME280;15317;50.360;8.726;2024-02-04T16:42:34;100062.28;;;10.11;100.00
27984;BME280;15317;50.360;8.726;2024-02-04T16:47:39;100074.84;;;10.12;100.00
27984;BME280;15317;50.360;8.726;2024-02-04T16:52:43;100052.00;;;10.14;100.00
27984;BME280;15317;50.360;8.726;2024-02-04T16:57:46;100040.03;;;10.17;100.00
27984;BME280;15317;50.360;8.726;2024-02-04T17:02:51;100057.44;;;10.14;100.00
27984;BME280;15317;50.360;8.726;2024-02-04T17:07:55;100063.72;;;10.15;100.00
27984;BME280;15317;50.360;8.726;2024-02-04T17:12:59;100066.44;;;10.15;100.00
27984;BME280;15317;50.360;8.726;2024-02-04T17:18:05;100046.00;;;10.11;100.00
27984;BME280;15317;50.360;8.726;2024-02-04T17:23:12;100056.03;;;10.20;100.00
27984;BME280;15317;50.360;8.726;2024-02-04T17:28:17;100052.16;;;10.13;100.00
27984;BME280;15317;50.360;8.726;2024-02-04T17:33:23;100047.31;;;10.26;100.00
27984;BME280;15317;50.360;8.726;2024-02-04T17:38:26;100021.75;;;10.19;100.00
27984;BME280;15317;50.360;8.726;2024-02-04T17:43:29;100011.16;;;10.25;100.00
27984;BME280;15317;50.360;8.726;2024-02-04T17:48:34;100009.88;;;10.29;100.00
27984;BME280;15317;50.360;8.726;2024-02-04T17:53:38;100021.03;;;10.26;100.00
27984;BME280;15317;50.360;8.726;2024-02-04T17:58:43;100020.56;;;10.31;100.00
27984;BME280;15317;50.360;8.726;2024-02-04T18:03:51;100010.03;;;10.28;100.00
27984;BME280;15317;50.360;8.726;2024-02-04T18:08:56;100016.84;;;10.32;100.00
27984;BME280;15317;50.360;8.726;2024-02-04T18:14:01;100006.13;;;10.40;100.00
27984;BME280;15317;50.360;8.726;2024-02-04T18:19:09;100009.84;;;10.39;100.00
27984;BME280;15317;50.360;8.726;2024-02-04T18:24:16;100007.72;;;10.33;100.00
27984;BME280;15317;50.360;8.726;2024-02-04T18:29:21;100000.44;;;10.34;100.00
27984;BME280;15317;50.360;8.726;2024-02-04T18:34:28;100005.44;;;10.28;100.00
27984;BME280;15317;50.360;8.726;2024-02-04T18:39:33;100000.16;;;10.37;100.00
27984;BME280;15317;50.360;8.726;2024-02-04T18:44:53;99996.13;;;10.41;100.00
27984;BME280;15317;50.360;8.726;2024-02-04T18:50:40;99988.56;;;10.25;100.00
27984;BME280;15317;50.360;8.726;2024-02-04T18:56:06;99975.16;;;10.23;100.00
27984;BME280;15317;50.360;8.726;2024-02-04T19:01:26;99968.88;;;10.23;100.00
27984;BME280;15317;50.360;8.726;2024-02-04T19:06:50;99968.31;;;10.19;100.00
27984;BME280;15317;50.360;8.726;2024-02-04T19:12:15;99958.31;;;10.20;100.00
27984;BME280;15317;50.360;8.726;2024-02-04T19:17:20;99956.16;;;10.14;100.00
27984;BME280;15317;50.360;8.726;2024-02-04T19:22:25;99971.03;;;10.19;100.00
27984;BME280;15317;50.360;8.726;2024-02-04T19:27:31;99966.84;;;10.25;100.00
27984;BME280;15317;50.360;8.726;2024-02-04T19:32:35;99960.56;;;10.34;100.00
27984;BME280;15317;50.360;8.726;2024-02-04T19:37:40;99979.25;;;10.47;100.00
27984;BME280;15317;50.360;8.726;2024-02-04T19:42:43;99968.53;;;10.45;100.00
27984;BME280;15317;50.360;8.726;2024-02-04T19:47:48;99969.66;;;10.52;100.00
27984;BME280;15317;50.360;8.726;2024-02-04T19:52:53;99970.97;;;10.48;100.00
27984;BME280;15317;50.360;8.726;2024-02-04T19:57:58;99968.38;;;10.47;100.00
27984;BME280;15317;50.360;8.726;2024-02-04T20:03:04;99967.06;;;10.51;100.00
27984;BME280;15317;50.360;8.726;2024-02-04T20:08:10;99979.09;;;10.48;100.00
27984;BME280;15317;50.360;8.726;2024-02-04T20:13:13;99977.97;;;10.41;100.00
27984;BME280;15317;50.360;8.726;2024-02-04T20:18:16;99987.13;;;10.40;100.00
27984;BME280;15317;50.360;8.726;2024-02-04T20:23:22;99994.88;;;10.35;100.00
27984;BME280;15317;50.360;8.726;2024-02-04T20:28:25;99982.28;;;10.34;100.00
27984;BME280;15317;50.360;8.726;2024-02-04T20:33:28;99994.44;;;10.30;100.00
27984;BME280;15317;50.360;8.726;2024-02-04T20:38:33;99992.16;;;10.25;100.00
27984;BME280;15317;50.360;8.726;2024-02-04T20:43:38;100006.88;;;10.23;100.00
27984;BME280;15317;50.360;8.726;2024-02-04T20:48:41;100006.59;;;10.16;100.00
27984;BME280;15317;50.360;8.726;2024-02-04T20:53:46;100007.44;;;10.17;100.00
27984;BME280;15317;50.360;8.726;2024-02-04T20:58:49;100009.44;;;10.05;100.00
27984;BME280;15317;50.360;8.726;2024-02-04T21:03:52;100030.00;;;10.08;100.00
27984;BME280;15317;50.360;8.726;2024-02-04T21:08:57;100023.84;;;10.06;100.00
27984;BME280;15317;50.360;8.726;2024-02-04T21:14:02;100024.16;;;10.03;100.00
27984;BME280;15317;50.360;8.726;2024-02-04T21:19:06;100023.72;;;10.07;100.00
27984;BME280;15317;50.360;8.726;2024-02-04T21:24:11;100020.00;;;9.99;100.00
27984;BME280;15317;50.360;8.726;2024-02-04T21:29:15;100016.72;;;10.05;100.00
27984;BME280;15317;50.360;8.726;2024-02-04T21:34:18;99996.13;;;10.12;100.00
27984;BME280;15317;50.360;8.726;2024-02-04T21:39:25;99992.56;;;10.11;100.00
27984;BME280;15317;50.360;8.726;2024-02-04T21:44:28;99988.56;;;10.06;100.00
27984;BME280;15317;50.360;8.726;2024-02-04T21:49:31;99988.16;;;10.01;100.00
27984;BME280;15317;50.360;8.726;2024-02-04T21:54:36;99988.75;;;9.95;100.00
27984;BME280;15317;50.360;8.726;2024-02-04T21:59:40;99981.88;;;9.90;100.00
27984;BME280;15317;50.360;8.726;2024-02-04T22:04:43;99967.88;;;9.85;100.00
27984;BME280;15317;50.360;8.726;2024-02-04T22:09:48;99979.16;;;9.90;100.00
27984;BME280;15317;50.360;8.726;2024-02-04T22:14:53;99979.47;;;9.87;100.00
27984;BME280;15317;50.360;8.726;2024-02-04T22:19:58;99981.19;;;9.88;100.00
27984;BME280;15317;50.360;8.726;2024-02-04T22:25:04;99967.72;;;9.97;100.00
27984;BME280;15317;50.360;8.726;2024-02-04T22:30:08;99970.56;;;10.05;100.00
27984;BME280;15317;50.360;8.726;2024-02-04T22:35:12;99974.00;;;10.07;100.00
27984;BME280;15317;50.360;8.726;2024-02-04T22:40:17;99973.28;;;10.05;100.00
27984;BME280;15317;50.360;8.726;2024-02-04T22:45:21;99969.16;;;10.01;100.00
27984;BME280;15317;50.360;8.726;2024-02-04T22:50:24;99972.16;;;9.98;100.00
27984;BME280;15317;50.360;8.726;2024-02-04T22:55:29;99966.31;;;9.93;100.00
27984;BME280;15317;50.360;8.726;2024-02-04T23:00:33;99961.16;;;9.89;100.00
27984;BME280;15317;50.360;8.726;2024-02-04T23:05:36;99986.00;;;10.04;100.00
27984;BME280;15317;50.360;8.726;2024-02-04T23:10:41;99971.03;;;10.10;100.00
27984;BME280;15317;50.360;8.726;2024-02-04T23:15:45;99967.59;;;10.08;100.00
27984;BME280;15317;50.360;8.726;2024-02-04T23:20:49;99970.03;;;10.01;100.00
27984;BME280;15317;50.360;8.726;2024-02-04T23:25:54;99974.59;;;10.01;100.00
27984;BME280;15317;50.360;8.726;2024-02-04T23:30:57;99978.03;;;10.03;100.00
27984;BME280;15317;50.360;8.726;2024-02-04T23:36:01;99989.75;;;9.94;100.00
27984;BME280;15317;50.360;8.726;2024-02-04T23:41:06;99971.72;;;9.83;100.00
27984;BME280;15317;50.360;8.726;2024-02-04T23:46:10;99976.16;;;9.84;100.00
27984;BME280;15317;50.360;8.726;2024-02-04T23:51:16;99970.44;;;9.77;100.00
27984;BME280;15317;50.360;8.726;2024-02-04T23:56:21;99990.31;;;9.68;100.00
